LHBD (Börgönd) - 119.550 - ALBA INFO - 01 LH, 19 RH - 10km SE Székesfehérvár - DROPZONE +3670624884

Élőkép

Információk

Albatrosz Repülő Egyesület
8000 Székesfehérvár,
Radványi utca 6.

Adószám:
19092908-2-07

Bankszámla szám:
Budapest Bank
10102952-01361819-00000001

Telefon: +36 30 9598-897

Drop-Zone: +36 70 624-8884

Telephey: Börgönd repülőtér

Börgöndi repülõtér

LHBP METAR/TAF

[source: ADDS]
METAR
TAF LHBP 050500Z 0506/0606 VRB03KT 9999 -RA -SHRA SCT008 BKN030 TEMPO 0506/0509 4000 SHRA SCT004 SCT025 BKN030 BECMG 0509/0511 NSW TEMPO 0515/0602 -RA -SHRA BKN020 BECMG 0516/0519 33008KT BECMG 0521/0523 31016KT BECMG 0602/0605 30008KT CAVOK TAF
TAF LHBP 050500Z 0506/0606 VRB03KT 9999 -RA -SHRA SCT008 BKN030 TEMPO 0506/0509 4000 SHRA SCT004 SCT025 BKN030 BECMG 0509/0511 NSW TEMPO 0515/0602 -RA -SHRA BKN020 BECMG 0516/0519 33008KT BECMG 0521/0523 31016KT BECMG 0602/0605 30008KT CAVOK =
SR / SS: 04:12 / 17:20 UTC (Börgönd 2015-09-05)
Hungarian Chinese (Simplified) Croatian Czech English Finnish French German Hebrew Italian Japanese Polish Portuguese Romanian Russian Serbian Slovak Slovenian Spanish

Belépés tagoknak